sensor_id;sensor_type;location;lat;lon;timestamp;pressure;altitude;pressure_sealevel;temperature;humidity
2268;BME280;11052;43.338;25.502;2024-01-07T00:00:19;99294.34;;;10.53;100.00
2268;BME280;11052;43.338;25.502;2024-01-07T00:02:46;99308.28;;;10.50;100.00
2268;BME280;11052;43.338;25.502;2024-01-07T00:05:13;99305.56;;;10.54;100.00
2268;BME280;11052;43.338;25.502;2024-01-07T00:07:40;99298.13;;;10.46;100.00
2268;BME280;11052;43.338;25.502;2024-01-07T00:10:08;99297.09;;;10.50;100.00
2268;BME280;11052;43.338;25.502;2024-01-07T00:12:35;99299.34;;;10.39;100.00
2268;BME280;11052;43.338;25.502;2024-01-07T00:15:02;99302.94;;;10.36;100.00
2268;BME280;11052;43.338;25.502;2024-01-07T00:17:31;99293.81;;;10.28;100.00
2268;BME280;11052;43.338;25.502;2024-01-07T00:19:58;99279.50;;;10.19;100.00
2268;BME280;11052;43.338;25.502;2024-01-07T00:22:25;99276.34;;;10.12;100.00
2268;BME280;11052;43.338;25.502;2024-01-07T00:24:52;99277.19;;;10.13;100.00
2268;BME280;11052;43.338;25.502;2024-01-07T00:27:19;99276.19;;;10.15;100.00
2268;BME280;11052;43.338;25.502;2024-01-07T00:29:46;99284.31;;;10.08;100.00
2268;BME280;11052;43.338;25.502;2024-01-07T00:32:13;99293.69;;;10.10;100.00
2268;BME280;11052;43.338;25.502;2024-01-07T00:34:42;99286.19;;;10.04;100.00
2268;BME280;11052;43.338;25.502;2024-01-07T00:37:09;99296.81;;;9.98;100.00
2268;BME280;11052;43.338;25.502;2024-01-07T00:39:36;99286.59;;;9.95;100.00
2268;BME280;11052;43.338;25.502;2024-01-07T00:42:03;99279.88;;;9.71;100.00
2268;BME280;11052;43.338;25.502;2024-01-07T00:44:30;99277.03;;;9.77;100.00
2268;BME280;11052;43.338;25.502;2024-01-07T00:46:57;99276.06;;;9.79;100.00
2268;BME280;11052;43.338;25.502;2024-01-07T00:49:24;99275.50;;;9.73;100.00
2268;BME280;11052;43.338;25.502;2024-01-07T00:51:54;99268.44;;;9.76;100.00
2268;BME280;11052;43.338;25.502;2024-01-07T00:54:22;99262.22;;;9.80;100.00
2268;BME280;11052;43.338;25.502;2024-01-07T00:56:49;99252.03;;;9.96;100.00
2268;BME280;11052;43.338;25.502;2024-01-07T00:59:16;99254.81;;;10.31;100.00
2268;BME280;11052;43.338;25.502;2024-01-07T01:01:43;99261.06;;;10.27;100.00
2268;BME280;11052;43.338;25.502;2024-01-07T01:04:10;99268.50;;;10.14;100.00
2268;BME280;11052;43.338;25.502;2024-01-07T01:06:37;99263.25;;;10.15;100.00
2268;BME280;11052;43.338;25.502;2024-01-07T01:09:06;99262.56;;;10.12;100.00
2268;BME280;11052;43.338;25.502;2024-01-07T01:11:33;99256.56;;;10.30;100.00
2268;BME280;11052;43.338;25.502;2024-01-07T01:14:00;99244.41;;;10.32;100.00
2268;BME280;11052;43.338;25.502;2024-01-07T01:16:27;99241.72;;;10.34;100.00
2268;BME280;11052;43.338;25.502;2024-01-07T01:18:54;99223.47;;;10.54;100.00
2268;BME280;11052;43.338;25.502;2024-01-07T01:21:21;99222.56;;;10.91;100.00
2268;BME280;11052;43.338;25.502;2024-01-07T01:23:48;99216.63;;;10.89;100.00
2268;BME280;11052;43.338;25.502;2024-01-07T01:26:17;99205.09;;;10.77;100.00
2268;BME280;11052;43.338;25.502;2024-01-07T01:28:44;99198.97;;;10.61;100.00
2268;BME280;11052;43.338;25.502;2024-01-07T01:31:13;99190.63;;;10.55;100.00
2268;BME280;11052;43.338;25.502;2024-01-07T01:33:40;99188.09;;;10.36;100.00
2268;BME280;11052;43.338;25.502;2024-01-07T01:36:10;99189.53;;;10.41;100.00
2268;BME280;11052;43.338;25.502;2024-01-07T01:38:37;99191.22;;;10.42;100.00
2268;BME280;11052;43.338;25.502;2024-01-07T01:41:04;99183.69;;;10.55;100.00
2268;BME280;11052;43.338;25.502;2024-01-07T01:43:33;99179.09;;;10.96;100.00
2268;BME280;11052;43.338;25.502;2024-01-07T01:46:00;99174.38;;;11.04;100.00
2268;BME280;11052;43.338;25.502;2024-01-07T01:48:27;99176.59;;;11.45;100.00
2268;BME280;11052;43.338;25.502;2024-01-07T01:50:55;99180.19;;;11.75;100.00
2268;BME280;11052;43.338;25.502;2024-01-07T01:53:24;99193.19;;;12.08;100.00
2268;BME280;11052;43.338;25.502;2024-01-07T01:55:52;99188.22;;;12.35;100.00
2268;BME280;11052;43.338;25.502;2024-01-07T01:58:21;99188.09;;;12.68;100.00
2268;BME280;11052;43.338;25.502;2024-01-07T02:00:51;99184.84;;;12.95;100.00
2268;BME280;11052;43.338;25.502;2024-01-07T02:03:18;99169.81;;;13.14;100.00
2268;BME280;11052;43.338;25.502;2024-01-07T02:05:45;99165.41;;;13.16;100.00
2268;BME280;11052;43.338;25.502;2024-01-07T02:08:15;99158.25;;;13.20;100.00
2268;BME280;11052;43.338;25.502;2024-01-07T02:10:42;99153.72;;;13.07;100.00
2268;BME280;11052;43.338;25.502;2024-01-07T02:13:10;99137.66;;;13.15;100.00
2268;BME280;11052;43.338;25.502;2024-01-07T02:15:37;99129.25;;;13.26;100.00
2268;BME280;11052;43.338;25.502;2024-01-07T02:18:06;99114.94;;;13.33;100.00
2268;BME280;11052;43.338;25.502;2024-01-07T02:20:33;99121.00;;;13.33;100.00
2268;BME280;11052;43.338;25.502;2024-01-07T02:23:01;99117.38;;;13.50;100.00
2268;BME280;11052;43.338;25.502;2024-01-07T02:25:34;99120.72;;;13.52;100.00
2268;BME280;11052;43.338;25.502;2024-01-07T02:28:01;99104.63;;;13.45;100.00
2268;BME280;11052;43.338;25.502;2024-01-07T02:30:28;99094.13;;;13.47;100.00
2268;BME280;11052;43.338;25.502;2024-01-07T02:32:55;99090.50;;;13.35;100.00
2268;BME280;11052;43.338;25.502;2024-01-07T02:35:22;99080.75;;;13.39;100.00
2268;BME280;11052;43.338;25.502;2024-01-07T02:37:49;99076.38;;;13.39;100.00
2268;BME280;11052;43.338;25.502;2024-01-07T02:40:16;99081.50;;;13.41;100.00
2268;BME280;11052;43.338;25.502;2024-01-07T02:42:44;99087.72;;;13.38;100.00
2268;BME280;11052;43.338;25.502;2024-01-07T02:45:12;99082.50;;;13.38;100.00
2268;BME280;11052;43.338;25.502;2024-01-07T02:47:39;99078.22;;;13.52;100.00
2268;BME280;11052;43.338;25.502;2024-01-07T02:50:06;99066.31;;;13.62;100.00
2268;BME280;11052;43.338;25.502;2024-01-07T02:52:33;99071.13;;;13.68;100.00
2268;BME280;11052;43.338;25.502;2024-01-07T02:55:01;99067.78;;;13.66;100.00
2268;BME280;11052;43.338;25.502;2024-01-07T02:57:28;99065.66;;;13.58;100.00
2268;BME280;11052;43.338;25.502;2024-01-07T02:59:56;99062.03;;;13.61;100.00
2268;BME280;11052;43.338;25.502;2024-01-07T03:02:23;99054.41;;;13.72;100.00
2268;BME280;11052;43.338;25.502;2024-01-07T03:04:50;99049.66;;;13.64;100.00
2268;BME280;11052;43.338;25.502;2024-01-07T03:07:17;99037.31;;;13.54;100.00
2268;BME280;11052;43.338;25.502;2024-01-07T03:09:44;99037.59;;;13.49;100.00
2268;BME280;11052;43.338;25.502;2024-01-07T03:12:11;99044.41;;;13.37;100.00
2268;BME280;11052;43.338;25.502;2024-01-07T03:14:40;99052.03;;;13.40;100.00
2268;BME280;11052;43.338;25.502;2024-01-07T03:17:09;99052.03;;;13.40;100.00
2268;BME280;11052;43.338;25.502;2024-01-07T03:19:37;99051.53;;;13.48;100.00
2268;BME280;11052;43.338;25.502;2024-01-07T03:22:04;99049.78;;;13.49;100.00
2268;BME280;11052;43.338;25.502;2024-01-07T03:24:32;99044.84;;;13.44;100.00
2268;BME280;11052;43.338;25.502;2024-01-07T03:26:59;99048.00;;;13.49;100.00
2268;BME280;11052;43.338;25.502;2024-01-07T03:29:32;99029.13;;;13.45;100.00
2268;BME280;11052;43.338;25.502;2024-01-07T03:32:18;99019.31;;;13.36;100.00
2268;BME280;11052;43.338;25.502;2024-01-07T03:34:48;99018.38;;;13.37;100.00
2268;BME280;11052;43.338;25.502;2024-01-07T03:37:15;99018.75;;;13.31;100.00
2268;BME280;11052;43.338;25.502;2024-01-07T03:39:45;99015.31;;;13.31;100.00
2268;BME280;11052;43.338;25.502;2024-01-07T03:42:12;99014.94;;;13.23;100.00
2268;BME280;11052;43.338;25.502;2024-01-07T03:44:40;99008.25;;;13.19;100.00
2268;BME280;11052;43.338;25.502;2024-01-07T03:47:07;99001.28;;;13.19;100.00
2268;BME280;11052;43.338;25.502;2024-01-07T03:49:40;98983.31;;;13.14;100.00
2268;BME280;11052;43.338;25.502;2024-01-07T03:52:07;98972.84;;;13.16;100.00
2268;BME280;11052;43.338;25.502;2024-01-07T03:54:34;98978.13;;;13.00;100.00
2268;BME280;11052;43.338;25.502;2024-01-07T03:57:01;98980.72;;;13.00;100.00
2268;BME280;11052;43.338;25.502;2024-01-07T03:59:28;98968.97;;;12.95;100.00
2268;BME280;11052;43.338;25.502;2024-01-07T04:01:57;98955.03;;;12.96;100.00
2268;BME280;11052;43.338;25.502;2024-01-07T04:04:24;98960.13;;;12.97;100.00
2268;BME280;11052;43.338;25.502;2024-01-07T04:06:52;98962.81;;;12.96;100.00
2268;BME280;11052;43.338;25.502;2024-01-07T04:09:19;98968.03;;;12.96;100.00
2268;BME280;11052;43.338;25.502;2024-01-07T04:11:47;98946.75;;;12.89;100.00
2268;BME280;11052;43.338;25.502;2024-01-07T04:14:14;98954.66;;;12.88;100.00
2268;BME280;11052;43.338;25.502;2024-01-07T04:16:41;98957.53;;;12.83;100.00
2268;BME280;11052;43.338;25.502;2024-01-07T04:19:09;98943.88;;;12.79;100.00
2268;BME280;11052;43.338;25.502;2024-01-07T04:21:36;98935.44;;;12.76;100.00
2268;BME280;11052;43.338;25.502;2024-01-07T04:24:05;98922.53;;;12.74;100.00
2268;BME280;11052;43.338;25.502;2024-01-07T04:26:33;98926.50;;;12.80;100.00
2268;BME280;11052;43.338;25.502;2024-01-07T04:29:00;98928.47;;;12.91;100.00
2268;BME280;11052;43.338;25.502;2024-01-07T04:31:27;98936.16;;;12.92;100.00
2268;BME280;11052;43.338;25.502;2024-01-07T04:33:54;98926.41;;;12.96;100.00
2268;BME280;11052;43.338;25.502;2024-01-07T04:36:21;98921.41;;;12.93;100.00
2268;BME280;11052;43.338;25.502;2024-01-07T04:38:50;98927.34;;;12.95;100.00
2268;BME280;11052;43.338;25.502;2024-01-07T04:41:18;98917.31;;;12.89;100.00
2268;BME280;11052;43.338;25.502;2024-01-07T04:43:45;98924.75;;;12.80;100.00
2268;BME280;11052;43.338;25.502;2024-01-07T04:46:13;98916.75;;;12.84;100.00
2268;BME280;11052;43.338;25.502;2024-01-07T04:48:41;98912.88;;;12.76;100.00
2268;BME280;11052;43.338;25.502;2024-01-07T04:51:08;98899.09;;;12.89;100.00
2268;BME280;11052;43.338;25.502;2024-01-07T04:53:35;98901.63;;;12.90;100.00
2268;BME280;11052;43.338;25.502;2024-01-07T04:56:03;98898.53;;;12.98;100.00
2268;BME280;11052;43.338;25.502;2024-01-07T04:58:30;98905.75;;;13.07;100.00
2268;BME280;11052;43.338;25.502;2024-01-07T05:00:59;98893.19;;;13.13;100.00
2268;BME280;11052;43.338;25.502;2024-01-07T05:03:26;98892.09;;;13.18;100.00
2268;BME280;11052;43.338;25.502;2024-01-07T05:05:53;98879.53;;;13.10;100.00
2268;BME280;11052;43.338;25.502;2024-01-07T05:08:20;98868.16;;;12.98;100.00
2268;BME280;11052;43.338;25.502;2024-01-07T05:10:47;98871.78;;;12.96;100.00
2268;BME280;11052;43.338;25.502;2024-01-07T05:13:14;98865.84;;;12.94;100.00
2268;BME280;11052;43.338;25.502;2024-01-07T05:15:43;98852.47;;;12.86;100.00
2268;BME280;11052;43.338;25.502;2024-01-07T05:18:12;98854.72;;;12.77;100.00
2268;BME280;11052;43.338;25.502;2024-01-07T05:20:39;98847.13;;;12.74;100.00
2268;BME280;11052;43.338;25.502;2024-01-07T05:23:06;98841.00;;;12.75;100.00
2268;BME280;11052;43.338;25.502;2024-01-07T05:25:33;98822.69;;;12.77;100.00
2268;BME280;11052;43.338;25.502;2024-01-07T05:28:00;98820.19;;;12.75;100.00
2268;BME280;11052;43.338;25.502;2024-01-07T05:30:27;98801.88;;;12.77;100.00
2268;BME280;11052;43.338;25.502;2024-01-07T05:32:56;98794.00;;;12.78;100.00
2268;BME280;11052;43.338;25.502;2024-01-07T05:35:26;98783.41;;;12.82;100.00
2268;BME280;11052;43.338;25.502;2024-01-07T05:37:53;98772.06;;;12.83;100.00
2268;BME280;11052;43.338;25.502;2024-01-07T05:40:21;98768.81;;;12.79;100.00
2268;BME280;11052;43.338;25.502;2024-01-07T05:42:48;98764.59;;;12.91;100.00
2268;BME280;11052;43.338;25.502;2024-01-07T05:45:15;98770.53;;;12.93;100.00
2268;BME280;11052;43.338;25.502;2024-01-07T05:47:42;98771.28;;;12.95;100.00
2268;BME280;11052;43.338;25.502;2024-01-07T05:50:10;98777.25;;;12.83;100.00
2268;BME280;11052;43.338;25.502;2024-01-07T05:52:41;98783.69;;;12.77;100.00
2268;BME280;11052;43.338;25.502;2024-01-07T05:55:08;98789.44;;;12.82;100.00
2268;BME280;11052;43.338;25.502;2024-01-07T05:57:35;98780.81;;;12.67;100.00
2268;BME280;11052;43.338;25.502;2024-01-07T06:00:03;98770.44;;;12.67;100.00
2268;BME280;11052;43.338;25.502;2024-01-07T06:02:30;98767.53;;;12.72;100.00
2268;BME280;11052;43.338;25.502;2024-01-07T06:05:00;98758.81;;;12.73;100.00
2268;BME280;11052;43.338;25.502;2024-01-07T06:07:30;98751.19;;;12.70;100.00
2268;BME280;11052;43.338;25.502;2024-01-07T06:09:57;98755.03;;;12.64;100.00
2268;BME280;11052;43.338;25.502;2024-01-07T06:12:24;98756.31;;;12.71;100.00
2268;BME280;11052;43.338;25.502;2024-01-07T06:14:51;98746.66;;;12.73;100.00
2268;BME280;11052;43.338;25.502;2024-01-07T06:17:18;98738.75;;;12.75;100.00
2268;BME280;11052;43.338;25.502;2024-01-07T06:19:45;98728.78;;;12.82;100.00
2268;BME280;11052;43.338;25.502;2024-01-07T06:22:12;98713.72;;;12.87;100.00
2268;BME280;11052;43.338;25.502;2024-01-07T06:24:40;98699.78;;;12.88;100.00
2268;BME280;11052;43.338;25.502;2024-01-07T06:27:07;98701.44;;;12.89;100.00
2268;BME280;11052;43.338;25.502;2024-01-07T06:29:34;98692.09;;;12.86;100.00
2268;BME280;11052;43.338;25.502;2024-01-07T06:32:02;98696.25;;;12.89;100.00
2268;BME280;11052;43.338;25.502;2024-01-07T06:34:29;98691.66;;;12.79;100.00
2268;BME280;11052;43.338;25.502;2024-01-07T06:36:56;98705.72;;;12.90;100.00
2268;BME280;11052;43.338;25.502;2024-01-07T06:39:23;98712.06;;;12.86;100.00
2268;BME280;11052;43.338;25.502;2024-01-07T06:41:53;98712.09;;;12.98;100.00
2268;BME280;11052;43.338;25.502;2024-01-07T06:44:21;98710.44;;;12.97;100.00
2268;BME280;11052;43.338;25.502;2024-01-07T06:46:48;98698.84;;;12.89;100.00
2268;BME280;11052;43.338;25.502;2024-01-07T06:49:15;98691.97;;;12.88;100.00
2268;BME280;11052;43.338;25.502;2024-01-07T06:51:43;98667.09;;;12.84;100.00
2268;BME280;11052;43.338;25.502;2024-01-07T06:54:10;98657.53;;;12.84;100.00
2268;BME280;11052;43.338;25.502;2024-01-07T06:56:37;98640.59;;;12.91;100.00
2268;BME280;11052;43.338;25.502;2024-01-07T06:59:06;98654.88;;;12.98;100.00
2268;BME280;11052;43.338;25.502;2024-01-07T07:01:33;98661.00;;;12.97;100.00
2268;BME280;11052;43.338;25.502;2024-01-07T07:04:00;98650.25;;;13.02;100.00
2268;BME280;11052;43.338;25.502;2024-01-07T07:06:27;98659.13;;;12.99;100.00
2268;BME280;11052;43.338;25.502;2024-01-07T07:08:54;98653.59;;;13.04;100.00
2268;BME280;11052;43.338;25.502;2024-01-07T07:11:21;98653.59;;;13.04;100.00
2268;BME280;11052;43.338;25.502;2024-01-07T07:13:48;98651.00;;;13.04;100.00
2268;BME280;11052;43.338;25.502;2024-01-07T07:16:17;98638.44;;;12.98;100.00
2268;BME280;11052;43.338;25.502;2024-01-07T07:18:44;98641.75;;;13.00;100.00
2268;BME280;11052;43.338;25.502;2024-01-07T07:21:11;98648.94;;;12.96;100.00
2268;BME280;11052;43.338;25.502;2024-01-07T07:23:38;98660.06;;;12.98;100.00
2268;BME280;11052;43.338;25.502;2024-01-07T07:26:05;98683.97;;;13.03;100.00
2268;BME280;11052;43.338;25.502;2024-01-07T07:39:57;98701.69;;;12.98;100.00
2268;BME280;11052;43.338;25.502;2024-01-07T07:42:24;98697.53;;;12.96;100.00
2268;BME280;11052;43.338;25.502;2024-01-07T07:44:51;98706.25;;;12.95;100.00
2268;BME280;11052;43.338;25.502;2024-01-07T07:47:18;98699.28;;;12.95;100.00
2268;BME280;11052;43.338;25.502;2024-01-07T07:49:46;98703.56;;;12.96;100.00
2268;BME280;11052;43.338;25.502;2024-01-07T07:52:13;98707.38;;;13.03;100.00
2268;BME280;11052;43.338;25.502;2024-01-07T07:54:40;98720.63;;;13.13;100.00
2268;BME280;11052;43.338;25.502;2024-01-07T07:57:09;98716.75;;;13.45;100.00
2268;BME280;11052;43.338;25.502;2024-01-07T07:59:35;98728.66;;;13.75;100.00
2268;BME280;11052;43.338;25.502;2024-01-07T08:02:02;98738.13;;;13.76;100.00
2268;BME280;11052;43.338;25.502;2024-01-07T08:04:29;98724.28;;;13.63;100.00
2268;BME280;11052;43.338;25.502;2024-01-07T08:06:57;98717.72;;;13.57;100.00
2268;BME280;11052;43.338;25.502;2024-01-07T08:09:25;98721.56;;;13.64;100.00
2268;BME280;11052;43.338;25.502;2024-01-07T08:11:52;98735.31;;;13.79;100.00
2268;BME280;11052;43.338;25.502;2024-01-07T08:14:20;98728.59;;;14.00;100.00
2268;BME280;11052;43.338;25.502;2024-01-07T08:16:47;98748.09;;;13.95;100.00
2268;BME280;11052;43.338;25.502;2024-01-07T08:19:14;98746.44;;;13.94;100.00
2268;BME280;11052;43.338;25.502;2024-01-07T08:21:42;98760.91;;;13.98;100.00
2268;BME280;11052;43.338;25.502;2024-01-07T08:24:09;98747.69;;;13.88;100.00
2268;BME280;11052;43.338;25.502;2024-01-07T08:26:36;98758.41;;;13.96;100.00
2268;BME280;11052;43.338;25.502;2024-01-07T08:29:04;98744.22;;;14.13;100.00
2268;BME280;11052;43.338;25.502;2024-01-07T08:31:32;98736.84;;;14.56;100.00
2268;BME280;11052;43.338;25.502;2024-01-07T08:33:59;98753.16;;;14.95;100.00
2268;BME280;11052;43.338;25.502;2024-01-07T08:36:27;98749.06;;;14.80;100.00
2268;BME280;11052;43.338;25.502;2024-01-07T08:38:54;98760.44;;;14.55;100.00
2268;BME280;11052;43.338;25.502;2024-01-07T08:41:21;98793.50;;;14.54;100.00
2268;BME280;11052;43.338;25.502;2024-01-07T08:43:49;98839.19;;;14.22;100.00
2268;BME280;11052;43.338;25.502;2024-01-07T08:46:16;98825.66;;;13.39;100.00
2268;BME280;11052;43.338;25.502;2024-01-07T08:48:44;98838.88;;;12.39;100.00
2268;BME280;11052;43.338;25.502;2024-01-07T08:51:11;98849.44;;;11.64;100.00
2268;BME280;11052;43.338;25.502;2024-01-07T08:53:39;98848.19;;;11.25;100.00
2268;BME280;11052;43.338;25.502;2024-01-07T08:56:06;98859.84;;;10.87;100.00
2268;BME280;11052;43.338;25.502;2024-01-07T08:58:34;98853.75;;;10.88;100.00
2268;BME280;11052;43.338;25.502;2024-01-07T09:01:01;98875.63;;;10.66;100.00
2268;BME280;11052;43.338;25.502;2024-01-07T09:03:28;98858.72;;;10.59;100.00
2268;BME280;11052;43.338;25.502;2024-01-07T09:05:56;98858.25;;;10.84;100.00
2268;BME280;11052;43.338;25.502;2024-01-07T09:08:26;98865.28;;;10.98;100.00
2268;BME280;11052;43.338;25.502;2024-01-07T09:10:53;98851.31;;;11.16;100.00
2268;BME280;11052;43.338;25.502;2024-01-07T09:13:20;98856.50;;;11.46;100.00
2268;BME280;11052;43.338;25.502;2024-01-07T09:15:47;98865.63;;;11.53;100.00
2268;BME280;11052;43.338;25.502;2024-01-07T09:18:15;98871.81;;;11.50;100.00
2268;BME280;11052;43.338;25.502;2024-01-07T09:20:42;98874.41;;;11.50;100.00
2268;BME280;11052;43.338;25.502;2024-01-07T09:23:10;98874.94;;;11.41;100.00
2268;BME280;11052;43.338;25.502;2024-01-07T09:25:37;98870.31;;;11.16;100.00
2268;BME280;11052;43.338;25.502;2024-01-07T09:28:05;98862.25;;;11.21;100.00
2268;BME280;11052;43.338;25.502;2024-01-07T09:30:32;98859.03;;;11.32;100.00
2268;BME280;11052;43.338;25.502;2024-01-07T09:32:59;98859.19;;;11.44;100.00
2268;BME280;11052;43.338;25.502;2024-01-07T09:35:26;98861.19;;;11.55;100.00
2268;BME280;11052;43.338;25.502;2024-01-07T09:37:53;98862.75;;;11.58;100.00
2268;BME280;11052;43.338;25.502;2024-01-07T09:40:21;98872.72;;;11.65;100.00
2268;BME280;11052;43.338;25.502;2024-01-07T09:42:49;98874.25;;;11.54;100.00
2268;BME280;11052;43.338;25.502;2024-01-07T09:45:18;98878.84;;;11.48;100.00
2268;BME280;11052;43.338;25.502;2024-01-07T09:47:45;98878.63;;;11.37;100.00
2268;BME280;11052;43.338;25.502;2024-01-07T09:50:12;98880.44;;;11.51;100.00
2268;BME280;11052;43.338;25.502;2024-01-07T09:52:42;98872.63;;;11.67;100.00
2268;BME280;11052;43.338;25.502;2024-01-07T09:55:12;98870.34;;;11.76;100.00
2268;BME280;11052;43.338;25.502;2024-01-07T09:57:46;98873.44;;;11.83;100.00
2268;BME280;11052;43.338;25.502;2024-01-07T10:00:14;98873.09;;;11.89;100.00
2268;BME280;11052;43.338;25.502;2024-01-07T10:02:41;98858.06;;;11.94;100.00
2268;BME280;11052;43.338;25.502;2024-01-07T10:05:08;98864.56;;;11.87;100.00
2268;BME280;11052;43.338;25.502;2024-01-07T10:07:35;98865.03;;;11.94;100.00
2268;BME280;11052;43.338;25.502;2024-01-07T10:10:12;98871.81;;;11.96;100.00
2268;BME280;11052;43.338;25.502;2024-01-07T10:12:39;98867.34;;;11.98;100.00
2268;BME280;11052;43.338;25.502;2024-01-07T10:15:08;98862.38;;;12.09;100.00
2268;BME280;11052;43.338;25.502;2024-01-07T10:17:36;98867.81;;;12.19;100.00
2268;BME280;11052;43.338;25.502;2024-01-07T10:20:05;98871.25;;;12.20;100.00
2268;BME280;11052;43.338;25.502;2024-01-07T10:22:35;98861.16;;;12.01;100.00
2268;BME280;11052;43.338;25.502;2024-01-07T10:25:03;98856.97;;;11.98;100.00
2268;BME280;11052;43.338;25.502;2024-01-07T10:27:33;98854.63;;;11.94;100.00
2268;BME280;11052;43.338;25.502;2024-01-07T10:30:01;98855.66;;;11.91;100.00
2268;BME280;11052;43.338;25.502;2024-01-07T10:32:30;98843.13;;;11.84;100.00
2268;BME280;11052;43.338;25.502;2024-01-07T10:35:02;98841.38;;;11.98;100.00
2268;BME280;11052;43.338;25.502;2024-01-07T10:37:30;98840.38;;;12.01;100.00
2268;BME280;11052;43.338;25.502;2024-01-07T10:39:58;98842.34;;;12.11;100.00
2268;BME280;11052;43.338;25.502;2024-01-07T10:42:30;98827.84;;;12.22;100.00
2268;BME280;11052;43.338;25.502;2024-01-07T10:44:58;98828.13;;;12.31;100.00
2268;BME280;11052;43.338;25.502;2024-01-07T10:47:28;98833.97;;;12.49;100.00
2268;BME280;11052;43.338;25.502;2024-01-07T10:49:58;98833.00;;;12.64;100.00
2268;BME280;11052;43.338;25.502;2024-01-07T10:52:27;98825.41;;;12.61;100.00
2268;BME280;11052;43.338;25.502;2024-01-07T10:54:56;98832.28;;;12.62;100.00
2268;BME280;11052;43.338;25.502;2024-01-07T10:57:30;98822.06;;;12.59;100.00
2268;BME280;11052;43.338;25.502;2024-01-07T11:00:01;98820.13;;;12.63;100.00
2268;BME280;11052;43.338;25.502;2024-01-07T11:02:32;98818.13;;;12.80;100.00
2268;BME280;11052;43.338;25.502;2024-01-07T11:05:07;98815.25;;;12.85;100.00
2268;BME280;11052;43.338;25.502;2024-01-07T11:07:41;98808.09;;;12.89;100.00
2268;BME280;11052;43.338;25.502;2024-01-07T11:10:12;98807.16;;;12.90;100.00
2268;BME280;11052;43.338;25.502;2024-01-07T11:12:40;98805.19;;;12.93;100.00
2268;BME280;11052;43.338;25.502;2024-01-07T11:15:08;98791.28;;;13.07;100.00
2268;BME280;11052;43.338;25.502;2024-01-07T11:17:42;98788.66;;;12.94;100.00
2268;BME280;11052;43.338;25.502;2024-01-07T11:20:18;98777.50;;;12.92;100.00
2268;BME280;11052;43.338;25.502;2024-01-07T11:22:46;98780.94;;;12.93;100.00
2268;BME280;11052;43.338;25.502;2024-01-07T11:25:29;98780.06;;;12.79;100.00
2268;BME280;11052;43.338;25.502;2024-01-07T11:27:58;98776.03;;;12.88;100.00
2268;BME280;11052;43.338;25.502;2024-01-07T11:30:25;98784.59;;;13.03;100.00
2268;BME280;11052;43.338;25.502;2024-01-07T11:32:59;98775.97;;;13.29;100.00
2268;BME280;11052;43.338;25.502;2024-01-07T11:35:56;98772.16;;;13.48;100.00
2268;BME280;11052;43.338;25.502;2024-01-07T11:38:23;98765.38;;;13.45;100.00
2268;BME280;11052;43.338;25.502;2024-01-07T11:40:51;98771.97;;;13.51;100.00
2268;BME280;11052;43.338;25.502;2024-01-07T11:43:18;98765.94;;;13.63;100.00
2268;BME280;11052;43.338;25.502;2024-01-07T11:45:46;98762.59;;;13.73;100.00
2268;BME280;11052;43.338;25.502;2024-01-07T11:48:13;98771.38;;;13.85;100.00
2268;BME280;11052;43.338;25.502;2024-01-07T11:50:41;98765.44;;;13.83;100.00
2268;BME280;11052;43.338;25.502;2024-01-07T11:53:11;98770.53;;;13.85;100.00
2268;BME280;11052;43.338;25.502;2024-01-07T11:55:38;98772.72;;;13.78;100.00
2268;BME280;11052;43.338;25.502;2024-01-07T11:58:05;98773.53;;;13.91;100.00
2268;BME280;11052;43.338;25.502;2024-01-07T12:00:32;98768.84;;;13.96;100.00
2268;BME280;11052;43.338;25.502;2024-01-07T12:03:00;98770.72;;;13.94;100.00
2268;BME280;11052;43.338;25.502;2024-01-07T12:05:27;98764.56;;;13.95;100.00
2268;BME280;11052;43.338;25.502;2024-01-07T12:07:54;98764.13;;;14.01;100.00
2268;BME280;11052;43.338;25.502;2024-01-07T12:10:24;98755.50;;;13.88;100.00
2268;BME280;11052;43.338;25.502;2024-01-07T12:12:52;98752.72;;;13.66;100.00
2268;BME280;11052;43.338;25.502;2024-01-07T12:15:20;98756.88;;;13.68;100.00
2268;BME280;11052;43.338;25.502;2024-01-07T12:17:55;98754.16;;;13.70;100.00
2268;BME280;11052;43.338;25.502;2024-01-07T12:20:24;98758.00;;;13.64;100.00
2268;BME280;11052;43.338;25.502;2024-01-07T12:22:51;98762.59;;;13.61;100.00
2268;BME280;11052;43.338;25.502;2024-01-07T12:25:22;98761.34;;;13.54;100.00
2268;BME280;11052;43.338;25.502;2024-01-07T12:27:51;98763.81;;;13.42;100.00
2268;BME280;11052;43.338;25.502;2024-01-07T12:30:24;98768.94;;;13.57;100.00
2268;BME280;11052;43.338;25.502;2024-01-07T12:32:51;98763.00;;;13.55;100.00
2268;BME280;11052;43.338;25.502;2024-01-07T12:35:17;98765.19;;;13.61;100.00
2268;BME280;11052;43.338;25.502;2024-01-07T12:37:45;98762.50;;;13.62;100.00
2268;BME280;11052;43.338;25.502;2024-01-07T12:40:12;98758.22;;;13.74;100.00
2268;BME280;11052;43.338;25.502;2024-01-07T12:42:39;98766.66;;;13.65;100.00
2268;BME280;11052;43.338;25.502;2024-01-07T12:45:12;98759.16;;;13.60;100.00
2268;BME280;11052;43.338;25.502;2024-01-07T12:47:40;98759.16;;;13.60;100.00
2268;BME280;11052;43.338;25.502;2024-01-07T12:50:08;98760.72;;;13.63;100.00
2268;BME280;11052;43.338;25.502;2024-01-07T12:52:37;98767.69;;;13.62;100.00
2268;BME280;11052;43.338;25.502;2024-01-07T12:55:05;98778.00;;;13.64;100.00
2268;BME280;11052;43.338;25.502;2024-01-07T12:57:33;98775.28;;;13.53;100.00
2268;BME280;11052;43.338;25.502;2024-01-07T13:00:00;98771.22;;;13.49;100.00
2268;BME280;11052;43.338;25.502;2024-01-07T13:02:29;98778.31;;;13.47;100.00
2268;BME280;11052;43.338;25.502;2024-01-07T13:04:56;98779.22;;;13.33;100.00